createdAt,value
2023-03-21T00:01:53.637Z,53.60
2023-03-21T00:04:22.085Z,53.50
2023-03-21T00:06:48.974Z,53.40
2023-03-21T00:09:15.877Z,53.80
2023-03-21T00:11:42.787Z,53.90
2023-03-21T00:14:15.156Z,54.30
2023-03-21T00:16:42.237Z,54.50
2023-03-21T00:19:10.404Z,55.40
2023-03-21T00:21:51.820Z,55.20
2023-03-21T00:24:25.913Z,55.70
2023-03-21T00:26:53.022Z,55.40
2023-03-21T00:29:19.866Z,55.20
2023-03-21T00:31:46.675Z,54.90
2023-03-21T00:36:45.255Z,54.60
2023-03-21T00:39:12.132Z,54.20
2023-03-21T00:41:42.777Z,53.90
2023-03-21T00:44:15.783Z,53.60
2023-03-21T00:46:54.469Z,53.60
2023-03-21T00:49:33.984Z,54.20
2023-03-21T00:52:14.552Z,54.50
2023-03-21T00:54:52.041Z,54.80
2023-03-21T00:57:21.979Z,55.40
2023-03-21T00:59:50.982Z,55.00
2023-03-21T01:02:22.803Z,54.70
2023-03-21T01:04:50.518Z,54.60
2023-03-21T01:07:17.276Z,54.60
2023-03-21T01:09:44.103Z,54.70
2023-03-21T01:12:11.046Z,54.50
2023-03-21T01:14:38.142Z,54.60
2023-03-21T01:17:05.477Z,54.80
2023-03-21T01:19:50.282Z,55.00
2023-03-21T01:22:18.238Z,55.60
2023-03-21T01:24:53.861Z,55.60
2023-03-21T01:27:22.126Z,55.50
2023-03-21T01:29:48.907Z,55.20
2023-03-21T01:32:15.643Z,55.20
2023-03-21T01:34:42.420Z,55.20
2023-03-21T01:37:09.379Z,55.80
2023-03-21T01:39:36.728Z,55.70
2023-03-21T01:42:03.555Z,56.40
2023-03-21T01:44:30.833Z,56.80
2023-03-21T01:47:13.410Z,56.60
2023-03-21T01:49:45.952Z,56.40
2023-03-21T01:52:33.492Z,56.40
2023-03-21T01:55:07.157Z,56.70
2023-03-21T01:57:49.236Z,56.60
2023-03-21T02:00:26.761Z,57.00
2023-03-21T02:03:09.534Z,57.90
2023-03-21T02:06:00.591Z,58.50
2023-03-21T02:08:38.689Z,58.80
2023-03-21T02:11:07.307Z,59.00
2023-03-21T02:13:34.504Z,58.90
2023-03-21T02:16:24.207Z,59.10
2023-03-21T02:19:06.667Z,59.00
2023-03-21T02:21:55.921Z,59.00
2023-03-21T02:24:46.271Z,58.90
2023-03-21T02:27:19.029Z,58.60
2023-03-21T02:30:02.169Z,58.80
2023-03-21T02:32:59.911Z,58.60
2023-03-21T02:35:54.422Z,58.90
2023-03-21T02:38:31.873Z,58.40
2023-03-21T02:41:10.130Z,58.00
2023-03-21T02:44:14.059Z,57.60
2023-03-21T02:46:59.714Z,57.80
2023-03-21T02:49:47.281Z,58.20
2023-03-21T02:52:37.326Z,58.20
2023-03-21T02:55:14.238Z,58.10
2023-03-21T02:57:46.683Z,58.30
2023-03-21T03:00:19.062Z,58.30
2023-03-21T03:02:47.555Z,58.10
2023-03-21T03:05:22.276Z,57.70
2023-03-21T03:08:07.844Z,58.00
2023-03-21T03:10:53.230Z,57.80
2023-03-21T03:13:48.499Z,58.30
2023-03-21T03:16:18.633Z,59.40
2023-03-21T03:18:53.579Z,60.00
2023-03-21T03:22:01.457Z,60.20
2023-03-21T03:24:39.579Z,60.90
2023-03-21T03:27:19.848Z,61.30
2023-03-21T03:29:49.227Z,61.30
2023-03-21T03:32:21.027Z,61.60
2023-03-21T03:34:56.294Z,61.10
2023-03-21T03:37:27.707Z,61.40
2023-03-21T03:40:06.963Z,61.40
2023-03-21T03:42:42.080Z,61.70
2023-03-21T03:45:10.955Z,62.80
2023-03-21T03:48:04.384Z,63.00
2023-03-21T03:50:40.002Z,63.20
2023-03-21T03:53:18.627Z,64.00
2023-03-21T03:55:47.480Z,64.20
2023-03-21T03:58:23.200Z,63.70
2023-03-21T04:00:53.667Z,63.50
2023-03-21T04:03:20.971Z,63.40
2023-03-21T04:05:47.780Z,63.20
2023-03-21T04:08:15.457Z,63.50
2023-03-21T04:10:54.350Z,63.70
2023-03-21T04:13:21.199Z,62.90
2023-03-21T04:15:48.047Z,62.70
2023-03-21T04:18:15.181Z,62.90
2023-03-21T04:20:42.344Z,63.50
2023-03-21T04:23:09.077Z,63.10
2023-03-21T04:25:38.614Z,63.40
2023-03-21T04:28:07.277Z,63.40
2023-03-21T04:30:34.208Z,63.60
2023-03-21T04:33:01.270Z,64.60
2023-03-21T04:35:28.565Z,64.90
2023-03-21T04:37:55.960Z,65.30
2023-03-21T04:40:24.748Z,65.60
2023-03-21T04:42:51.786Z,65.70
2023-03-21T04:45:18.559Z,65.70
2023-03-21T04:47:45.624Z,65.40
2023-03-21T04:50:13.750Z,65.40
2023-03-21T04:52:40.642Z,65.10
2023-03-21T04:55:10.241Z,65.10
2023-03-21T04:57:38.385Z,64.70
2023-03-21T05:00:10.609Z,64.60
2023-03-21T05:02:38.653Z,65.50
2023-03-21T05:05:05.974Z,64.80
2023-03-21T05:07:32.856Z,65.30
2023-03-21T05:10:02.213Z,65.50
2023-03-21T05:12:29.286Z,66.10
2023-03-21T05:14:56.056Z,65.50
2023-03-21T05:17:28.508Z,64.90
2023-03-21T05:19:56.481Z,64.00
2023-03-21T05:22:24.738Z,63.40
2023-03-21T05:24:51.568Z,64.00
2023-03-21T05:27:34.318Z,64.00
2023-03-21T05:30:04.024Z,63.90
2023-03-21T05:32:31.098Z,63.70
2023-03-21T05:34:57.999Z,64.30
2023-03-21T05:37:24.955Z,64.70
2023-03-21T05:39:52.187Z,64.50
2023-03-21T05:42:19.594Z,64.20
2023-03-21T05:44:46.790Z,63.80
2023-03-21T05:47:14.732Z,62.80
2023-03-21T05:49:41.704Z,62.90
2023-03-21T05:52:08.751Z,63.30
2023-03-21T05:54:36.423Z,64.80
2023-03-21T05:57:04.628Z,64.40
2023-03-21T05:59:31.435Z,64.70
2023-03-21T06:01:58.376Z,64.40
2023-03-21T06:04:25.748Z,64.20
2023-03-21T06:06:53.708Z,64.50
2023-03-21T06:09:22.416Z,64.70
2023-03-21T06:11:51.912Z,64.60
2023-03-21T06:14:20.077Z,64.10
2023-03-21T06:16:46.875Z,63.90
2023-03-21T06:19:14.035Z,64.10
2023-03-21T06:21:41.125Z,63.80
2023-03-21T06:24:08.425Z,63.80
2023-03-21T06:26:35.339Z,63.40
2023-03-21T06:29:02.400Z,63.60
2023-03-21T06:31:29.233Z,63.40
2023-03-21T06:33:56.093Z,63.60
2023-03-21T06:36:36.716Z,63.20
2023-03-21T06:39:04.909Z,62.70
2023-03-21T06:41:31.656Z,62.60
2023-03-21T06:43:58.568Z,62.80
2023-03-21T06:46:25.425Z,63.10
2023-03-21T06:48:52.205Z,62.90
2023-03-21T06:51:19.063Z,62.90
2023-03-21T06:53:45.938Z,63.70
2023-03-21T06:56:14.426Z,63.70
2023-03-21T06:58:41.532Z,63.70
2023-03-21T07:01:08.524Z,62.60
2023-03-21T07:03:35.554Z,63.10
2023-03-21T07:06:13.670Z,63.50
2023-03-21T07:08:41.545Z,63.30
2023-03-21T07:11:09.660Z,63.20
2023-03-21T07:13:36.774Z,63.00
2023-03-21T07:16:03.791Z,63.00
2023-03-21T07:18:31.092Z,60.80
2023-03-21T07:20:58.640Z,60.30
2023-03-21T07:23:26.389Z,60.20
2023-03-21T07:25:54.248Z,59.70
2023-03-21T07:28:22.224Z,60.10
2023-03-21T07:30:55.412Z,60.70
2023-03-21T07:33:23.209Z,60.80
2023-03-21T07:35:51.472Z,59.30
2023-03-21T07:38:19.111Z,58.50
2023-03-21T07:40:47.292Z,57.90
2023-03-21T07:43:15.499Z,56.90
2023-03-21T07:45:42.873Z,57.80
2023-03-21T07:48:12.918Z,58.70
2023-03-21T07:50:41.048Z,58.20
2023-03-21T07:53:08.873Z,57.80
2023-03-21T07:55:36.263Z,58.30
2023-03-21T07:58:04.099Z,56.80
2023-03-21T08:00:31.580Z,56.40
2023-03-21T08:02:59.711Z,55.90
2023-03-21T08:05:34.551Z,55.50
2023-03-21T08:08:02.011Z,56.30
2023-03-21T08:10:29.284Z,54.70
2023-03-21T08:12:56.549Z,53.70
2023-03-21T08:15:23.740Z,52.50
2023-03-21T08:17:50.657Z,50.30
2023-03-21T08:20:21.204Z,50.40
2023-03-21T08:22:49.394Z,50.60
2023-03-21T08:25:18.227Z,50.20
2023-03-21T08:27:46.697Z,50.10
2023-03-21T08:30:16.560Z,50.00
2023-03-21T08:32:44.341Z,49.30
2023-03-21T08:35:13.687Z,47.80
2023-03-21T08:37:41.391Z,47.50
2023-03-21T08:40:13.399Z,46.80
2023-03-21T08:42:42.001Z,46.90
2023-03-21T08:45:10.129Z,47.10
2023-03-21T08:47:37.231Z,48.40
2023-03-21T08:50:06.860Z,47.70
2023-03-21T08:52:34.145Z,48.30
2023-03-21T08:55:02.269Z,47.50
2023-03-21T08:57:30.064Z,45.60
2023-03-21T08:59:57.165Z,44.30
2023-03-21T09:02:24.184Z,44.40
2023-03-21T09:04:54.905Z,44.10
2023-03-21T09:07:22.275Z,43.10
2023-03-21T09:10:08.144Z,42.10
2023-03-21T09:12:39.283Z,41.30
2023-03-21T09:15:07.443Z,42.50
2023-03-21T09:17:34.402Z,41.90
2023-03-21T09:20:05.229Z,42.30
2023-03-21T09:22:32.480Z,41.30
2023-03-21T09:24:59.284Z,41.20
2023-03-21T09:27:28.207Z,40.30
2023-03-21T09:29:55.627Z,40.30
2023-03-21T09:32:22.375Z,39.50
2023-03-21T09:34:49.124Z,39.20
2023-03-21T09:37:16.543Z,38.90
2023-03-21T09:39:45.445Z,39.30
2023-03-21T09:42:34.122Z,38.80
2023-03-21T09:45:25.961Z,38.40
2023-03-21T09:47:54.048Z,38.00
2023-03-21T09:50:27.371Z,37.40
2023-03-21T09:53:05.861Z,36.40
2023-03-21T09:55:37.823Z,33.60
2023-03-21T09:58:05.004Z,34.20
2023-03-21T10:00:40.154Z,34.50
2023-03-21T10:03:26.171Z,33.70
2023-03-21T10:05:58.852Z,33.50
2023-03-21T10:08:32.098Z,34.40
2023-03-21T10:11:21.733Z,33.90
2023-03-21T10:14:19.465Z,33.00
2023-03-21T10:16:52.598Z,31.40
2023-03-21T10:19:20.305Z,31.40
2023-03-21T10:22:00.861Z,31.20
2023-03-21T10:24:31.874Z,30.90
2023-03-21T10:26:59.256Z,32.10
2023-03-21T10:29:32.682Z,31.80
2023-03-21T10:32:00.523Z,33.00
2023-03-21T10:34:38.163Z,33.50
2023-03-21T10:37:05.911Z,32.40
2023-03-21T10:39:36.800Z,33.10
2023-03-21T10:42:04.162Z,32.40
2023-03-21T10:44:34.206Z,31.20
2023-03-21T10:47:08.730Z,31.60
2023-03-21T10:50:13.049Z,30.30
2023-03-21T10:52:28.815Z,31.50
2023-03-21T10:55:28.943Z,30.60
2023-03-21T10:58:08.691Z,30.10
2023-03-21T11:00:39.444Z,30.10
2023-03-21T11:03:07.066Z,29.70
2023-03-21T11:05:40.906Z,30.00
2023-03-21T11:08:15.301Z,29.90
2023-03-21T11:11:02.212Z,30.40
2023-03-21T11:13:45.276Z,30.00
2023-03-21T11:16:23.202Z,30.00
2023-03-21T11:18:51.932Z,30.00
2023-03-21T11:21:20.090Z,30.00
2023-03-21T11:23:51.897Z,29.80
2023-03-21T11:26:30.495Z,30.00
2023-03-21T11:28:57.952Z,30.20
2023-03-21T11:31:41.111Z,29.80
2023-03-21T11:34:09.592Z,29.50
2023-03-21T11:36:39.175Z,29.40
2023-03-21T11:39:15.421Z,29.70
2023-03-21T11:41:47.454Z,29.60
2023-03-21T11:44:43.009Z,29.40
2023-03-21T11:47:11.389Z,29.80
2023-03-21T11:49:38.320Z,29.50
2023-03-21T11:52:38.011Z,30.00
2023-03-21T11:55:11.407Z,30.00
2023-03-21T11:58:13.535Z,29.50
2023-03-21T12:01:01.170Z,29.50
2023-03-21T12:03:45.139Z,29.00
2023-03-21T12:06:38.633Z,29.00
2023-03-21T12:09:34.204Z,29.00
2023-03-21T12:12:29.986Z,29.20
2023-03-21T12:15:41.910Z,29.20
2023-03-21T12:18:35.854Z,28.60
2023-03-21T12:21:27.890Z,28.70
2023-03-21T12:24:11.775Z,29.10
2023-03-21T12:26:50.350Z,28.80
2023-03-21T12:29:30.095Z,29.50
2023-03-21T12:32:35.605Z,28.90
2023-03-21T12:35:29.019Z,28.60
2023-03-21T12:38:16.058Z,28.20
2023-03-21T12:40:48.846Z,28.40
2023-03-21T12:43:23.033Z,29.30
2023-03-21T12:45:55.792Z,29.80
2023-03-21T12:48:33.702Z,29.70
2023-03-21T12:51:04.098Z,29.30
2023-03-21T12:54:10.882Z,29.40
2023-03-21T12:56:46.702Z,29.30
2023-03-21T12:59:40.639Z,29.20
2023-03-21T13:02:28.928Z,29.10
2023-03-21T13:05:27.620Z,29.30
2023-03-21T13:08:10.061Z,29.20
2023-03-21T13:10:37.228Z,29.40
2023-03-21T13:13:09.943Z,29.50
2023-03-21T13:15:58.127Z,29.40
2023-03-21T13:18:59.136Z,29.20
2023-03-21T13:21:28.709Z,29.40
2023-03-21T13:24:26.196Z,29.40
2023-03-21T13:27:04.290Z,29.30
2023-03-21T13:29:32.894Z,29.20
2023-03-21T13:32:25.027Z,29.30
2023-03-21T13:35:09.722Z,29.60
2023-03-21T13:37:49.098Z,29.50
2023-03-21T13:40:37.722Z,29.80
2023-03-21T13:43:04.948Z,30.00
2023-03-21T13:45:51.267Z,30.20
2023-03-21T13:49:04.194Z,29.70
2023-03-21T13:51:36.989Z,29.30
2023-03-21T13:54:18.162Z,29.20
2023-03-21T13:56:45.258Z,29.10
2023-03-21T13:59:17.648Z,29.00
2023-03-21T14:02:17.737Z,28.50
2023-03-21T14:05:03.649Z,28.30
2023-03-21T14:07:34.942Z,28.40
2023-03-21T14:10:06.644Z,28.30
2023-03-21T14:12:44.549Z,27.70
2023-03-21T14:15:20.293Z,27.20
2023-03-21T14:17:51.453Z,26.80
2023-03-21T14:20:32.954Z,27.10
2023-03-21T14:23:00.277Z,27.20
2023-03-21T14:25:44.385Z,27.20
2023-03-21T14:28:29.818Z,27.40
2023-03-21T14:31:00.548Z,27.90
2023-03-21T14:33:35.694Z,28.20
2023-03-21T14:36:10.707Z,28.40
2023-03-21T14:38:39.970Z,27.90
2023-03-21T14:41:21.600Z,28.10
2023-03-21T14:44:25.402Z,27.70
2023-03-21T14:47:06.376Z,28.10
2023-03-21T14:49:37.986Z,27.70
2023-03-21T14:52:10.286Z,28.00
2023-03-21T14:54:41.259Z,28.20
2023-03-21T14:57:14.410Z,28.30
2023-03-21T14:59:42.342Z,28.70
2023-03-21T15:02:32.920Z,28.90
2023-03-21T15:05:21.957Z,29.20
2023-03-21T15:08:01.029Z,29.40
2023-03-21T15:10:31.146Z,29.50
2023-03-21T15:13:13.491Z,29.50
2023-03-21T15:15:41.498Z,29.50
2023-03-21T15:18:11.267Z,29.40
2023-03-21T15:20:39.232Z,29.30
2023-03-21T15:23:26.493Z,28.50
2023-03-21T15:25:53.844Z,28.00
2023-03-21T15:28:21.044Z,28.20
2023-03-21T15:30:53.010Z,28.20
2023-03-21T15:33:20.737Z,28.40
2023-03-21T15:35:54.248Z,28.80
2023-03-21T15:38:24.648Z,28.80
2023-03-21T15:40:52.200Z,29.10
2023-03-21T15:43:20.070Z,29.20
2023-03-21T15:45:55.481Z,29.20
2023-03-21T15:48:26.951Z,29.30
2023-03-21T15:51:06.211Z,29.30
2023-03-21T15:53:34.899Z,29.10
2023-03-21T15:56:05.955Z,29.20
2023-03-21T15:58:41.645Z,28.90
2023-03-21T16:01:17.897Z,28.90
2023-03-21T16:03:56.635Z,28.60
2023-03-21T16:06:31.082Z,29.00
2023-03-21T16:09:06.498Z,28.90
2023-03-21T16:11:55.247Z,29.00
2023-03-21T16:14:23.543Z,29.30
2023-03-21T16:16:51.021Z,29.40
2023-03-21T16:19:18.391Z,29.40
2023-03-21T16:21:46.038Z,29.50
2023-03-21T16:24:13.516Z,29.70
2023-03-21T16:26:47.635Z,30.30
2023-03-21T16:29:15.753Z,29.90
2023-03-21T16:31:43.573Z,30.00
2023-03-21T16:34:10.856Z,30.30
2023-03-21T16:36:40.331Z,30.10
2023-03-21T16:39:23.019Z,30.00
2023-03-21T16:41:51.636Z,30.00
2023-03-21T16:44:18.919Z,30.40
2023-03-21T16:46:47.313Z,30.20
2023-03-21T16:49:19.066Z,30.60
2023-03-21T16:51:45.876Z,30.50
2023-03-21T16:54:12.662Z,30.80
2023-03-21T16:56:49.024Z,30.90
2023-03-21T16:59:15.816Z,30.90
2023-03-21T17:01:46.147Z,31.10
2023-03-21T17:04:13.750Z,31.20
2023-03-21T17:06:47.586Z,31.30
2023-03-21T17:09:16.335Z,31.50
2023-03-21T17:11:43.732Z,31.50
2023-03-21T17:14:11.997Z,31.50
2023-03-21T17:16:40.504Z,31.50
2023-03-21T17:19:18.682Z,31.60
2023-03-21T17:21:45.746Z,31.80
2023-03-21T17:24:12.852Z,32.30
2023-03-21T17:26:39.771Z,32.40
2023-03-21T17:29:07.327Z,32.70
2023-03-21T17:31:37.273Z,33.50
2023-03-21T17:34:04.681Z,33.40
2023-03-21T17:36:36.811Z,34.70
2023-03-21T17:39:09.126Z,34.50
2023-03-21T17:41:35.977Z,35.50
2023-03-21T17:44:03.201Z,35.10
2023-03-21T17:46:34.261Z,35.30
2023-03-21T17:49:01.150Z,35.50
2023-03-21T17:51:30.357Z,35.70
2023-03-21T17:53:57.506Z,36.00
2023-03-21T17:56:26.895Z,36.70
2023-03-21T17:58:54.540Z,36.70
2023-03-21T18:01:23.327Z,35.90
2023-03-21T18:03:51.465Z,36.00
2023-03-21T18:06:21.697Z,36.40
2023-03-21T18:08:49.472Z,36.70
2023-03-21T18:11:17.463Z,37.10
2023-03-21T18:13:45.121Z,37.60
2023-03-21T18:16:23.863Z,38.10
2023-03-21T18:18:53.798Z,38.50
2023-03-21T18:21:22.765Z,39.10
2023-03-21T18:23:50.207Z,39.30
2023-03-21T18:26:19.780Z,39.20
2023-03-21T18:29:15.070Z,39.10
2023-03-21T18:31:34.982Z,39.10
2023-03-21T18:34:01.736Z,39.40
2023-03-21T18:36:29.176Z,39.40
2023-03-21T18:38:56.862Z,39.90
2023-03-21T18:41:23.866Z,41.00
2023-03-21T18:44:14.734Z,41.30
2023-03-21T18:46:40.553Z,41.40
2023-03-21T18:49:42.175Z,41.40
2023-03-21T18:51:54.619Z,41.70
2023-03-21T18:54:21.422Z,42.10
2023-03-21T18:57:34.588Z,42.70
2023-03-21T18:59:39.350Z,43.30
2023-03-21T19:02:07.562Z,42.50
2023-03-21T19:04:34.505Z,43.00
2023-03-21T19:07:01.370Z,43.70
2023-03-21T19:09:31.963Z,44.40
2023-03-21T19:11:59.884Z,45.30
2023-03-21T19:14:27.384Z,46.10
2023-03-21T19:17:43.597Z,45.80
2023-03-21T19:19:43.763Z,45.70
2023-03-21T19:22:11.312Z,45.90
2023-03-21T19:24:39.625Z,46.30
2023-03-21T19:27:06.984Z,46.20
2023-03-21T19:29:34.004Z,46.40
2023-03-21T19:32:01.121Z,46.40
2023-03-21T19:34:29.367Z,46.60
2023-03-21T19:36:57.489Z,47.10
2023-03-21T19:39:25.149Z,48.00
2023-03-21T19:41:55.341Z,48.40
2023-03-21T19:44:30.933Z,48.50
2023-03-21T19:46:57.946Z,49.30
2023-03-21T19:49:37.005Z,49.30
2023-03-21T19:52:13.424Z,49.30
2023-03-21T19:54:40.268Z,49.70
2023-03-21T19:57:09.628Z,50.00
2023-03-21T19:59:36.547Z,50.40
2023-03-21T20:02:27.130Z,50.80
2023-03-21T20:04:50.520Z,51.60
2023-03-21T20:07:17.308Z,51.70
2023-03-21T20:09:51.950Z,51.90
2023-03-21T20:12:20.661Z,52.00
2023-03-21T20:14:49.271Z,52.00
2023-03-21T20:17:16.896Z,52.40
2023-03-21T20:19:43.733Z,52.70
2023-03-21T20:22:21.862Z,53.00
2023-03-21T20:24:54.198Z,53.40
2023-03-21T20:27:24.339Z,54.10
2023-03-21T20:32:43.830Z,54.10
2023-03-21T20:35:21.044Z,53.70
2023-03-21T20:37:54.386Z,53.40
2023-03-21T20:40:21.664Z,53.40
2023-03-21T20:42:50.293Z,53.90
2023-03-21T20:45:17.685Z,53.80
2023-03-21T20:47:44.598Z,54.00
2023-03-21T20:50:21.985Z,54.60
2023-03-21T20:53:05.426Z,54.50
2023-03-21T20:55:34.288Z,54.90
2023-03-21T20:58:02.200Z,55.10
2023-03-21T21:00:30.105Z,55.60
2023-03-21T21:02:58.083Z,55.30
2023-03-21T21:05:30.550Z,55.00
2023-03-21T21:07:59.134Z,55.40
2023-03-21T21:10:26.245Z,55.40
2023-03-21T21:12:53.363Z,55.60
2023-03-21T21:15:20.217Z,55.40
2023-03-21T21:20:36.762Z,55.10
2023-03-21T21:23:04.346Z,54.50
2023-03-21T21:25:33.491Z,54.00
2023-03-21T21:28:01.730Z,54.50
2023-03-21T21:30:29.567Z,53.60
2023-03-21T21:32:59.540Z,53.30
2023-03-21T21:35:26.968Z,53.50
2023-03-21T21:37:53.835Z,53.30
2023-03-21T21:40:23.313Z,53.80
2023-03-21T21:42:50.236Z,53.70
2023-03-21T21:45:18.332Z,53.70
2023-03-21T21:47:46.388Z,53.70
2023-03-21T21:50:13.496Z,53.10
2023-03-21T21:52:43.710Z,52.90
2023-03-21T21:55:10.868Z,52.60
2023-03-21T21:57:39.775Z,52.90
2023-03-21T22:00:12.774Z,52.80
2023-03-21T22:02:40.759Z,53.10
2023-03-21T22:05:09.031Z,53.40
2023-03-21T22:07:37.459Z,54.10
2023-03-21T22:10:05.028Z,53.90
2023-03-21T22:12:32.363Z,53.40
2023-03-21T22:14:59.218Z,53.40
2023-03-21T22:17:26.244Z,53.10
2023-03-21T22:20:05.002Z,52.50
2023-03-21T22:22:34.469Z,52.60
2023-03-21T22:25:01.304Z,51.90
2023-03-21T22:27:28.097Z,52.00
2023-03-21T22:29:54.821Z,51.80
2023-03-21T22:32:21.563Z,51.40
2023-03-21T22:34:48.294Z,51.40
2023-03-21T22:37:21.113Z,51.50
2023-03-21T22:39:47.770Z,51.80
2023-03-21T22:42:14.537Z,51.50
2023-03-21T22:44:41.335Z,51.10
2023-03-21T22:47:10.651Z,51.40
2023-03-21T22:49:38.571Z,51.10
2023-03-21T22:52:06.422Z,50.80
2023-03-21T22:54:33.353Z,50.40
2023-03-21T22:57:00.529Z,50.60
2023-03-21T22:59:27.918Z,50.60
2023-03-21T23:01:54.984Z,51.30
2023-03-21T23:04:21.824Z,51.70
2023-03-21T23:06:48.720Z,51.70
2023-03-21T23:09:17.494Z,51.50
2023-03-21T23:11:46.233Z,51.20
2023-03-21T23:14:15.297Z,51.60
2023-03-21T23:16:42.828Z,52.00
2023-03-21T23:19:11.032Z,52.30
2023-03-21T23:21:38.508Z,52.00
2023-03-21T23:24:06.485Z,52.40
2023-03-21T23:26:34.174Z,52.10
2023-03-21T23:29:00.879Z,51.80
2023-03-21T23:31:28.038Z,51.60
2023-03-21T23:33:57.657Z,51.20
2023-03-21T23:36:24.460Z,51.00
2023-03-21T23:38:51.258Z,51.30
2023-03-21T23:41:21.034Z,51.80
2023-03-21T23:43:48.613Z,52.20
2023-03-21T23:46:16.648Z,52.30
2023-03-21T23:48:44.630Z,52.10
2023-03-21T23:51:12.987Z,51.90
2023-03-21T23:53:40.126Z,51.80
2023-03-21T23:56:22.009Z,51.80
2023-03-21T23:58:52.776Z,52.10
